Time;durP1;ratioP1;P1;durP2;ratioP2;P2;SDS_P1;SDS_P2;PMS_P1;PMS_P2;Temp;Humidity;BMP_temperature;BMP_pressure;BME280_temperature;BME280_humidity;BME280_pressure;Samples;Min_cycle;Max_cycle;Signal;HPM_P1;HPM_P2
2022/01/24 00:01:59;;;;;;;;;58.00;42.25;;;;;10.60;57.52;102902.53;5084934;27;61822;-85
2022/01/24 00:04:25;;;;;;;;;58.50;44.25;;;;;10.60;57.14;102907.78;5083232;28;61703;-85
2022/01/24 00:06:50;;;;;;;;;48.75;34.50;;;;;10.58;57.61;102909.38;5082672;28;61994;-85
2022/01/24 00:09:16;;;;;;;;;68.00;42.50;;;;;10.56;57.53;102905.72;5082751;28;61972;-85
2022/01/24 00:11:58;;;;;;;;;56.50;42.75;;;;;10.55;57.54;102903.88;5084731;27;61981;-85
2022/01/24 00:27:47;;;;;;;;;50.25;37.75;;;;;10.33;57.69;102887.25;5083743;28;62116;-85
2022/01/24 00:30:15;;;;;;;;;51.50;38.25;;;;;10.27;57.90;102871.88;5083708;27;61751;-85
2022/01/24 00:32:41;;;;;;;;;40.50;35.00;;;;;10.26;58.25;102885.78;5084258;27;61717;-85
2022/01/24 00:35:07;;;;;;;;;47.00;36.00;;;;;10.27;57.90;102878.84;5082899;28;62735;-85
2022/01/24 00:37:33;;;;;;;;;45.00;40.50;;;;;10.24;58.07;102882.16;5083613;27;61897;-85
2022/01/24 00:40:00;;;;;;;;;52.25;37.50;;;;;10.22;58.35;102871.50;5082649;28;62011;-85
2022/01/24 00:42:43;;;;;;;;;43.25;37.75;;;;;10.21;58.40;102880.16;5082154;28;61848;-85
2022/01/24 00:45:15;;;;;;;;;45.25;36.25;;;;;10.19;58.02;102870.34;5083173;28;62842;-85
2022/01/24 00:55:25;;;;;;;;;50.75;37.00;;;;;10.20;57.92;102864.31;5082485;28;61748;-84
2022/01/24 00:57:51;;;;;;;;;50.25;38.75;;;;;10.18;57.96;102864.19;5082976;28;61970;-85
2022/01/24 01:00:16;;;;;;;;;51.50;37.25;;;;;10.18;57.85;102871.16;5082236;28;62072;-85
2022/01/24 01:02:42;;;;;;;;;46.75;39.75;;;;;10.19;57.87;102863.38;5083573;27;61848;-85
2022/01/24 01:18:32;;;;;;;;;37.50;29.25;;;;;10.00;58.51;102868.91;5082668;28;62213;-85
2022/01/24 01:23:30;;;;;;;;;51.25;36.25;;;;;9.98;58.65;102873.09;5083230;27;61897;-85
2022/01/24 01:25:58;;;;;;;;;47.75;36.25;;;;;9.95;58.50;102871.94;5080755;28;61790;-85
2022/01/24 01:28:25;;;;;;;;;44.50;32.00;;;;;9.90;58.54;102863.69;5081515;28;61902;-84
2022/01/24 01:30:54;;;;;;;;;46.25;36.75;;;;;9.92;58.93;102867.34;5081500;28;61998;-85
2022/01/24 01:36:14;;;;;;;;;45.00;38.00;;;;;9.90;58.52;102863.69;5082214;27;61943;-84
2022/01/24 01:39:05;;;;;;;;;58.00;39.50;;;;;9.87;58.74;102863.44;5081458;28;61978;-85
2022/01/24 01:52:55;;;;;;;;;45.25;40.75;;;;;9.76;59.10;102861.66;4999443;28;62043;-85
2022/01/24 01:57:52;;;;;;;;;43.75;36.00;;;;;9.80;58.64;102861.13;4999137;28;62627;-84
2022/01/24 02:00:18;;;;;;;;;60.25;43.25;;;;;9.80;58.65;102858.50;5000011;28;61965;-85
2022/01/24 02:02:43;;;;;;;;;52.50;39.75;;;;;9.85;58.68;102859.75;4998853;28;62117;-85
2022/01/24 02:05:09;;;;;;;;;42.75;36.25;;;;;9.87;58.94;102871.31;4999867;28;61849;-84
2022/01/24 02:07:47;;;;;;;;;46.50;35.75;;;;;9.85;58.67;102858.84;4982707;28;63501;-85
2022/01/24 02:10:13;;;;;;;;;59.25;39.00;;;;;9.86;58.67;102871.19;4999742;28;62006;-85
2022/01/24 02:12:38;;;;;;;;;46.25;35.50;;;;;9.77;58.73;102864.41;4999298;28;61892;-84
2022/01/24 02:15:04;;;;;;;;;43.00;33.25;;;;;9.79;58.72;102875.94;4983252;28;62209;-86
2022/01/24 02:17:44;;;;;;;;;50.50;40.25;;;;;9.73;58.77;102862.31;4982019;28;64855;-85
2022/01/24 02:23:01;;;;;;;;;51.25;35.75;;;;;9.76;58.50;102859.94;4998912;28;62113;-84
2022/01/24 02:25:29;;;;;;;;;42.00;31.50;;;;;9.74;58.64;102855.38;5080758;28;61883;-85
2022/01/24 02:28:01;;;;;;;;;53.00;39.75;;;;;9.71;58.71;102858.66;5081293;28;61863;-84
2022/01/24 02:33:02;;;;;;;;;47.50;36.75;;;;;9.71;58.91;102850.81;5082050;27;62084;-85
2022/01/24 02:35:28;;;;;;;;;48.00;35.25;;;;;9.72;58.92;102855.22;5080959;28;61840;-85
2022/01/24 02:37:55;;;;;;;;;47.75;37.25;;;;;9.73;59.01;102854.47;5081197;27;61758;-86
2022/01/24 02:40:21;;;;;;;;;47.75;37.50;;;;;9.69;59.03;102838.34;5082224;27;62084;-85
2022/01/24 02:48:30;;;;;;;;;49.50;38.75;;;;;9.70;59.05;102835.84;5081378;28;61902;-85
2022/01/24 02:53:41;;;;;;;;;48.00;37.50;;;;;9.68;58.71;102829.56;5081885;27;61797;-85
2022/01/24 02:56:06;;;;;;;;;52.00;37.00;;;;;9.68;59.05;102829.56;5081307;27;61774;-85
2022/01/24 02:58:33;;;;;;;;;58.25;36.75;;;;;9.65;58.74;102828.41;5081144;28;63269;-85
2022/01/24 03:00:59;;;;;;;;;50.75;34.75;;;;;9.65;58.89;102838.91;5081101;28;61775;-85
2022/01/24 03:03:25;;;;;;;;;43.00;39.25;;;;;9.63;58.88;102836.16;5081876;28;61751;-85
2022/01/24 03:05:50;;;;;;;;;38.25;34.75;;;;;9.62;58.53;102836.94;5080157;27;61886;-86
2022/01/24 03:08:20;;;;;;;;;53.50;36.50;;;;;9.60;58.86;102839.44;5081153;28;61925;-86
2022/01/24 03:10:46;;;;;;;;;45.75;37.75;;;;;9.58;58.58;102840.13;5081669;27;61765;-85
2022/01/24 03:15:41;;;;;;;;;43.00;36.25;;;;;9.56;58.96;102832.13;5081673;27;61829;-85
2022/01/24 03:18:07;;;;;;;;;43.00;29.50;;;;;9.53;59.01;102826.63;5079609;28;65141;-85
2022/01/24 03:20:33;;;;;;;;;57.50;42.25;;;;;9.55;59.01;102822.41;5080337;28;61843;-87
2022/01/24 03:22:59;;;;;;;;;50.25;38.25;;;;;9.55;59.16;102824.09;5096987;27;62041;-87
2022/01/24 03:25:24;;;;;;;;;53.33;40.00;;;;;9.49;58.94;102813.13;5081668;28;61821;-87
2022/01/24 03:27:52;;;;;;;;;49.00;37.25;;;;;9.55;59.14;102818.88;5080592;28;62920;-87
2022/01/24 03:30:18;;;;;;;;;52.75;42.00;;;;;9.53;59.12;102810.91;5079808;28;61755;-87
2022/01/24 03:32:52;;;;;;;;;45.00;35.25;;;;;9.56;58.72;102812.84;5080367;28;61907;-87
2022/01/24 03:35:18;;;;;;;;;46.75;36.50;;;;;9.54;58.94;102822.28;5082726;28;61936;-87
2022/01/24 03:37:46;;;;;;;;;36.25;24.75;;;;;9.51;58.81;102815.09;5082757;28;63694;-87
2022/01/24 03:40:11;;;;;;;;;54.00;35.75;;;;;9.49;58.98;102819.31;5100456;27;62151;-87
2022/01/24 03:42:37;;;;;;;;;42.50;35.00;;;;;9.49;59.28;102814.06;5083724;28;61944;-87
2022/01/24 03:45:06;;;;;;;;;48.00;36.50;;;;;9.47;58.78;102802.53;5084190;27;61895;-87
2022/01/24 03:50:03;;;;;;;;;45.25;34.75;;;;;9.47;59.06;102802.53;5084720;27;61996;-87
2022/01/24 03:52:31;;;;;;;;;53.75;38.75;;;;;9.45;58.77;102801.50;5083353;28;61859;-88
2022/01/24 03:54:58;;;;;;;;;49.25;40.00;;;;;9.46;59.02;102808.56;5083243;28;62104;-87
2022/01/24 03:57:25;;;;;;;;;44.50;33.50;;;;;9.46;59.46;102805.94;5083833;27;62761;-87
2022/01/24 03:59:51;;;;;;;;;44.25;36.75;;;;;9.44;59.05;102807.50;5082139;27;62016;-87
2022/01/24 04:02:19;;;;;;;;;49.50;37.25;;;;;9.41;58.68;102802.94;5084549;27;61822;-87
2022/01/24 04:04:44;;;;;;;;;41.50;33.50;;;;;9.41;58.84;102804.66;5083167;28;62130;-87
2022/01/24 04:07:10;;;;;;;;;53.25;39.50;;;;;9.38;58.76;102793.91;5082744;28;62193;-87
2022/01/24 04:09:38;;;;;;;;;59.67;39.33;;;;;9.39;59.25;102794.03;5084638;27;61874;-87
2022/01/24 04:12:04;;;;;;;;;47.50;36.25;;;;;9.38;58.84;102791.28;5082402;28;61926;-85
2022/01/24 04:14:41;;;;;;;;;43.00;36.75;;;;;9.36;58.86;102792.84;5084281;27;61883;-88
2022/01/24 04:22:36;;;;;;;;;47.75;40.50;;;;;9.27;59.60;102779.91;5084299;28;61893;-88
2022/01/24 04:25:04;;;;;;;;;34.50;26.75;;;;;9.20;59.16;102781.13;5084085;27;61995;-87
2022/01/24 04:27:30;;;;;;;;;49.00;39.25;;;;;9.24;59.07;102791.88;5082740;28;62670;-87
2022/01/24 04:29:56;;;;;;;;;54.67;40.67;;;;;9.24;59.27;102797.13;5082664;28;61839;-87
2022/01/24 04:32:23;;;;;;;;;43.67;38.33;;;;;9.24;59.69;102798.03;5084100;27;61803;-87
2022/01/24 04:34:49;;;;;;;;;50.50;38.75;;;;;9.21;59.46;102787.28;5083801;27;62073;-87
2022/01/24 04:37:16;;;;;;;;;43.50;34.25;;;;;9.19;59.96;102802.91;5081572;28;65111;-87
2022/01/24 04:39:43;;;;;;;;;55.00;37.00;;;;;9.17;59.80;102809.72;5082740;28;61969;-87
2022/01/24 04:42:15;;;;;;;;;41.75;34.75;;;;;9.15;59.63;102808.66;5083531;28;61778;-87
2022/01/24 04:45:22;;;;;;;;;43.50;34.00;;;;;9.13;59.55;102802.38;5082498;28;62146;-87
2022/01/24 04:53:32;;;;;;;;;52.33;42.00;;;;;9.15;59.47;102802.53;5081008;28;61893;-87
2022/01/24 04:55:56;;;;;;;;;57.67;40.00;;;;;9.12;59.63;102797.00;5080165;28;61949;-87
2022/01/24 04:58:22;;;;;;;;;50.67;39.00;;;;;9.13;59.33;102804.09;5079898;28;62395;-86
2022/01/24 05:00:47;;;;;;;;;53.00;37.67;;;;;9.14;59.42;102805.91;5080903;28;61925;-87
2022/01/24 05:03:12;;;;;;;;;108.33;82.00;;;;;9.13;59.30;102804.09;5080763;28;61900;-87
2022/01/24 05:05:38;;;;;;;;;60.33;48.00;;;;;9.10;59.27;102803.81;5080939;28;61806;-87
2022/01/24 05:08:05;;;;;;;;;44.00;35.33;;;;;9.11;59.33;102805.69;5080510;28;61868;-87
2022/01/24 05:10:40;;;;;;;;;45.00;37.00;;;;;9.11;59.13;102803.97;5063496;28;61864;-87
2022/01/24 05:21:33;;;;;;;;;41.25;34.75;;;;;9.09;59.26;102802.91;5080721;28;61744;-87
2022/01/24 05:24:02;;;;;;;;;55.50;40.00;;;;;9.05;59.88;102794.69;5063802;28;61920;-87
2022/01/24 05:26:28;;;;;;;;;46.75;38.50;;;;;9.05;59.40;102803.44;5079871;28;61797;-87
2022/01/24 05:28:55;;;;;;;;;48.00;34.00;;;;;9.03;59.39;102801.50;5081096;28;64775;-87
2022/01/24 05:31:22;;;;;;;;;44.25;37.50;;;;;9.06;59.51;102797.44;5083054;27;61742;-87
2022/01/24 05:33:53;;;;;;;;;61.00;46.33;;;;;9.01;59.43;102793.50;5082853;27;61908;-86
2022/01/24 05:36:21;;;;;;;;;40.00;38.75;;;;;9.00;59.82;102783.84;5082963;27;62044;-87
2022/01/24 05:38:46;;;;;;;;;72.67;52.33;;;;;9.02;59.27;102790.13;5082349;28;61765;-87
2022/01/24 05:41:11;;;;;;;;;59.67;46.67;;;;;9.01;59.28;102797.03;5082623;28;62166;-87
2022/01/24 05:43:37;;;;;;;;;69.33;51.67;;;;;9.02;59.35;102792.72;5082474;28;61846;-87
2022/01/24 05:46:03;;;;;;;;;79.33;60.00;;;;;8.98;59.56;102795.88;5098898;27;62111;-87
2022/01/24 05:48:28;;;;;;;;;89.00;65.67;;;;;8.97;59.96;102796.66;5082031;28;63001;-87
2022/01/24 05:50:54;;;;;;;;;92.67;64.33;;;;;8.93;59.25;102785.03;5082880;28;61832;-86
2022/01/24 05:53:19;;;;;;;;;86.67;62.33;;;;;8.94;59.46;102781.59;5082650;28;62374;-86
2022/01/24 05:55:45;;;;;;;;;73.67;49.33;;;;;8.92;59.74;102783.19;5081938;28;61854;-86
2022/01/24 05:58:10;;;;;;;;;62.67;44.33;;;;;8.94;59.88;102786.84;5081245;28;61797;-86
2022/01/24 06:00:36;;;;;;;;;54.00;44.33;;;;;8.94;59.67;102785.94;5082682;28;61857;-86
2022/01/24 06:03:01;;;;;;;;;54.33;42.67;;;;;8.92;59.79;102782.28;5082285;28;61693;-86
2022/01/24 06:05:27;;;;;;;;;63.33;45.00;;;;;8.92;59.25;102777.03;5081069;28;62273;-86
2022/01/24 06:07:54;;;;;;;;;46.00;38.67;;;;;8.92;59.92;102782.28;5097592;27;64993;-86
2022/01/24 06:10:20;;;;;;;;;58.67;42.67;;;;;8.89;59.44;102779.38;5080550;28;61827;-86
2022/01/24 06:12:45;;;;;;;;;50.67;41.00;;;;;8.89;60.03;102782.00;5082620;27;61744;-86
2022/01/24 06:15:11;;;;;;;;;58.33;41.67;;;;;8.88;60.16;102790.66;5081017;28;61772;-85
2022/01/24 06:17:37;;;;;;;;;58.00;48.00;;;;;8.84;59.72;102786.84;5081786;27;63381;-84
2022/01/24 06:20:03;;;;;;;;;53.33;42.33;;;;;8.87;59.11;102799.28;5082159;28;61789;-84
2022/01/24 06:22:29;;;;;;;;;45.00;41.33;;;;;8.84;59.59;102802.56;5080814;28;61966;-82
2022/01/24 06:24:54;;;;;;;;;49.33;41.33;;;;;8.83;59.41;102799.84;5082167;28;61847;-84
2022/01/24 06:27:20;;;;;;;;;59.67;44.67;;;;;8.82;59.83;102798.91;5080171;28;63586;-82
2022/01/24 06:29:45;;;;;;;;;60.67;42.33;;;;;8.82;60.04;102803.22;5076777;28;62099;-80
2022/01/24 06:32:11;;;;;;;;;57.00;42.33;;;;;8.80;59.69;102806.66;5062101;28;62511;-83
2022/01/24 06:34:37;;;;;;;;;56.00;45.67;;;;;8.80;60.01;102805.72;5061727;28;61809;-83
2022/01/24 06:37:03;;;;;;;;;55.67;43.67;;;;;8.74;60.32;102805.19;5074147;28;61855;-82
2022/01/24 06:39:29;;;;;;;;;66.00;47.33;;;;;8.78;59.62;102802.06;5081587;28;61884;-85
2022/01/24 06:42:12;;;;;;;;;67.67;48.33;;;;;8.77;59.43;102813.31;5081728;28;61911;-83
2022/01/24 06:44:37;;;;;;;;;67.00;47.67;;;;;8.77;59.79;102805.47;5094612;27;62117;-81
2022/01/24 06:47:03;;;;;;;;;63.67;42.33;;;;;8.72;59.74;102802.47;5080826;27;62030;-83
2022/01/24 06:49:29;;;;;;;;;67.00;49.00;;;;;8.73;60.09;102804.28;5080201;28;61994;-85
2022/01/24 06:51:54;;;;;;;;;60.67;42.67;;;;;8.74;60.62;102810.44;5081503;28;61919;-84
2022/01/24 06:54:20;;;;;;;;;63.33;46.00;;;;;8.69;60.17;102807.44;5081883;28;61701;-82
2022/01/24 06:56:45;;;;;;;;;60.00;44.33;;;;;8.73;59.93;102811.22;5078600;28;64694;-82
2022/01/24 06:59:11;;;;;;;;;63.67;43.00;;;;;8.69;59.64;102809.13;5080214;28;62024;-81
2022/01/24 07:01:36;;;;;;;;;62.67;43.00;;;;;8.70;59.83;102805.75;5075826;28;62135;-82
2022/01/24 07:04:03;;;;;;;;;68.00;51.67;;;;;8.67;59.84;102808.09;5068376;28;61970;-82
2022/01/24 07:06:28;;;;;;;;;65.33;50.00;;;;;8.68;59.80;102818.69;5080899;28;61872;-81
2022/01/24 07:08:54;;;;;;;;;66.67;43.67;;;;;8.66;59.30;102811.50;5081832;27;62012;-82
2022/01/24 07:11:19;;;;;;;;;50.33;40.67;;;;;8.63;60.03;102814.75;5085163;27;61799;-82
2022/01/24 07:13:45;;;;;;;;;69.00;45.33;;;;;8.65;60.09;102818.41;5085040;27;61844;-82
2022/01/24 07:16:12;;;;;;;;;58.67;43.67;;;;;8.66;60.06;102825.50;5084712;28;61744;-82
2022/01/24 07:21:22;;;;;;;;;62.33;45.33;;;;;8.62;59.71;102822.50;5084760;28;61794;-83
2022/01/24 07:23:47;;;;;;;;;66.67;45.33;;;;;8.62;59.88;102815.56;5085108;27;62105;-82
2022/01/24 07:26:12;;;;;;;;;70.00;51.00;;;;;8.63;60.46;102822.63;5083868;27;61718;-85
2022/01/24 07:28:38;;;;;;;;;52.67;41.33;;;;;8.59;60.12;102811.00;5084588;27;61717;-85
2022/01/24 07:31:03;;;;;;;;;58.67;40.33;;;;;8.64;59.61;102818.31;5085003;28;61832;-85
2022/01/24 07:33:29;;;;;;;;;60.00;37.00;;;;;8.66;59.60;102825.50;5084727;27;61863;-84
2022/01/24 07:35:55;;;;;;;;;60.67;44.33;;;;;8.65;59.77;102820.13;5078376;27;62673;-83
2022/01/24 07:38:20;;;;;;;;;62.67;47.00;;;;;8.68;59.43;102823.03;5075033;28;61839;-82
2022/01/24 07:40:48;;;;;;;;;53.67;44.67;;;;;8.69;59.43;102817.00;5084432;27;61971;-81
2022/01/24 07:43:14;;;;;;;;;47.00;41.00;;;;;8.70;59.51;102824.06;5084362;27;61826;-89
2022/01/24 07:45:46;;;;;;;;;51.33;41.67;;;;;8.71;59.77;102818.94;5063116;27;61899;-90
2022/01/24 07:48:12;;;;;;;;;69.67;46.00;;;;;8.71;60.30;102825.91;5063467;28;61692;-90
2022/01/24 07:50:41;;;;;;;;;60.67;47.33;;;;;8.71;59.92;102826.81;5070894;28;62099;-91
2022/01/24 07:53:12;;;;;;;;;67.67;49.33;;;;;8.72;59.68;102822.47;5081871;28;61894;-88
2022/01/24 07:55:38;;;;;;;;;70.00;50.33;;;;;8.73;59.56;102827.84;5072677;27;63849;-90
2022/01/24 07:58:03;;;;;;;;;69.33;52.00;;;;;8.75;59.54;102828.00;5093259;27;61843;-90
2022/01/24 08:00:29;;;;;;;;;73.33;46.00;;;;;8.77;60.09;102835.19;5075303;27;62004;-80
2022/01/24 08:02:54;;;;;;;;;52.33;42.67;;;;;8.78;59.80;102834.41;5067997;27;61786;-79
2022/01/24 08:05:20;;;;;;;;;66.00;43.00;;;;;8.80;59.87;102829.28;5061370;28;64787;-81
2022/01/24 08:07:45;;;;;;;;;63.00;46.00;;;;;8.83;59.53;102826.94;5081617;28;61849;-80
2022/01/24 08:10:11;;;;;;;;;64.67;48.33;;;;;8.87;59.18;102836.88;5084299;27;61768;-80
2022/01/24 08:12:38;;;;;;;;;59.33;42.00;;;;;8.89;59.77;102837.94;5082537;28;61799;-80
2022/01/24 08:15:05;;;;;;;;;62.33;44.33;;;;;8.92;59.68;102834.66;5098546;27;61843;-81
2022/01/24 08:17:31;;;;;;;;;68.67;50.67;;;;;8.98;59.55;102830.84;5080389;28;62071;-81
2022/01/24 08:19:56;;;;;;;;;67.67;51.00;;;;;9.01;59.25;102836.31;5082922;27;62140;-80
2022/01/24 08:22:23;;;;;;;;;74.67;52.00;;;;;9.05;59.44;102831.34;5082961;27;61928;-79
2022/01/24 08:24:50;;;;;;;;;55.67;44.00;;;;;9.10;59.20;102845.75;5082927;28;61954;-81
2022/01/24 08:27:18;;;;;;;;;69.00;48.00;;;;;9.11;59.44;102843.25;5081741;28;61953;-81
2022/01/24 08:29:45;;;;;;;;;59.33;41.67;;;;;9.15;59.57;102841.81;5090234;27;61760;-80
2022/01/24 08:32:11;;;;;;;;;66.00;46.33;;;;;9.21;59.01;102851.09;5082301;27;61824;-90
2022/01/24 08:34:38;;;;;;;;;62.00;47.00;;;;;9.25;59.05;102847.00;5098548;27;63896;-84
2022/01/24 08:37:04;;;;;;;;;62.67;47.67;;;;;9.30;59.22;102842.19;5099065;27;61981;-88
2022/01/24 08:39:30;;;;;;;;;63.67;46.67;;;;;9.34;59.03;102845.19;5083838;28;61892;-88
2022/01/24 08:45:40;;;;;;;;;68.00;49.67;;;;;9.47;58.58;102843.53;5082808;28;61850;-88
2022/01/24 08:47:07;;;;;;;;;61.67;48.67;;;;;9.42;58.92;102838.81;5084081;27;61739;-88
2022/01/24 08:49:32;;;;;;;;;63.33;47.33;;;;;9.49;58.51;102842.91;5083093;27;61910;-88
2022/01/24 08:51:59;;;;;;;;;64.33;50.67;;;;;9.55;58.33;102848.63;5083800;28;62073;-88
2022/01/24 08:54:26;;;;;;;;;73.33;57.67;;;;;9.62;58.69;102850.97;5081212;28;63666;-88
2022/01/24 08:56:51;;;;;;;;;66.67;50.33;;;;;9.66;58.32;102843.34;5083466;28;61813;-88
2022/01/24 08:59:17;;;;;;;;;70.33;49.33;;;;;9.74;58.21;102845.78;5083597;28;61728;-88
2022/01/24 09:01:43;;;;;;;;;75.00;52.33;;;;;9.76;57.92;102844.19;5099179;27;62069;-88
2022/01/24 09:04:09;;;;;;;;;72.00;53.67;;;;;9.83;57.79;102848.22;5082178;27;61985;-88
2022/01/24 09:06:35;;;;;;;;;76.33;51.33;;;;;9.89;57.79;102855.69;5081942;28;61837;-88
2022/01/24 09:09:04;;;;;;;;;71.50;51.25;;;;;9.91;57.95;102854.09;5083481;28;61764;-88
2022/01/24 09:11:35;;;;;;;;;62.67;47.67;;;;;10.00;58.29;102858.41;5099001;27;61750;-88
2022/01/24 09:14:03;;;;;;;;;71.33;46.00;;;;;10.05;57.93;102864.00;5097554;27;64720;-87
2022/01/24 09:16:28;;;;;;;;;65.67;47.67;;;;;10.08;57.64;102858.09;5083043;28;61758;-88
2022/01/24 09:18:54;;;;;;;;;45.50;39.50;;;;;10.12;57.95;102861.06;5098589;27;62086;-88
2022/01/24 09:21:21;;;;;;;;;64.75;45.75;;;;;10.11;57.43;102850.44;5116392;27;62046;-88
2022/01/24 09:23:46;;;;;;;;;63.75;44.50;;;;;10.21;57.48;102855.63;5082657;28;61926;-88
2022/01/24 09:26:12;;;;;;;;;68.00;51.00;;;;;10.24;57.40;102861.16;5097962;27;61889;-88
2022/01/24 09:28:38;;;;;;;;;66.00;49.33;;;;;10.25;57.08;102860.34;5082703;28;62066;-88
2022/01/24 09:31:03;;;;;;;;;61.67;47.33;;;;;10.27;57.24;102858.75;5082913;28;61997;-87
2022/01/24 09:33:29;;;;;;;;;59.75;43.75;;;;;10.35;57.14;102859.41;5081111;28;62828;-87
2022/01/24 09:35:59;;;;;;;;;67.00;48.33;;;;;10.41;57.61;102862.47;5080993;28;61937;-88
2022/01/24 09:38:29;;;;;;;;;62.25;46.75;;;;;10.45;56.97;102861.94;5082909;28;61697;-88
2022/01/24 09:40:55;;;;;;;;;60.67;43.67;;;;;10.48;56.71;102862.19;5083273;28;61849;-88
2022/01/24 09:43:21;;;;;;;;;60.00;45.33;;;;;10.51;57.08;102861.50;5081501;27;62861;-87
2022/01/24 09:45:47;;;;;;;;;68.33;45.67;;;;;10.59;57.24;102860.41;5082518;28;61866;-87
2022/01/24 09:48:15;;;;;;;;;60.33;44.00;;;;;10.63;56.45;102865.09;5082692;27;62092;-87
2022/01/24 09:50:40;;;;;;;;;66.33;44.67;;;;;10.62;56.84;102868.50;5081755;28;62162;-87
2022/01/24 09:53:06;;;;;;;;;65.33;48.00;;;;;10.69;57.06;102868.19;5082238;28;62845;-87
2022/01/24 09:55:31;;;;;;;;;65.00;45.33;;;;;10.74;56.68;102869.47;5080254;28;61827;-87
2022/01/24 09:57:57;;;;;;;;;55.67;47.00;;;;;10.80;56.85;102862.06;5082469;28;61809;-87
2022/01/24 10:00:25;;;;;;;;;51.00;44.00;;;;;10.86;56.55;102872.09;5081934;28;62072;-89
2022/01/24 10:02:51;;;;;;;;;50.50;44.50;;;;;10.90;56.40;102868.91;5082148;28;61941;-87
2022/01/24 10:05:21;;;;;;;;;64.75;46.00;;;;;10.90;55.93;102868.00;5082250;28;61833;-87
2022/01/24 10:07:52;;;;;;;;;62.33;50.67;;;;;10.99;56.42;102861.75;5082629;27;61795;-87
2022/01/24 10:10:32;;;;;;;;;66.67;48.33;;;;;11.03;56.38;102857.63;5098183;27;61877;-87
2022/01/24 10:16:29;;;;;;;;;65.33;48.00;;;;;11.09;55.96;102844.03;5082032;28;62029;-87
2022/01/24 10:19:09;;;;;;;;;52.50;42.25;;;;;11.25;55.71;102855.81;5082546;28;61972;-88
2022/01/24 10:21:55;;;;;;;;;69.67;48.67;;;;;11.36;55.83;102861.88;5082359;28;61787;-87
2022/01/24 10:24:30;;;;;;;;;65.00;45.00;;;;;11.43;55.36;102861.53;5081589;28;61823;-87
2022/01/24 10:27:09;;;;;;;;;62.00;44.33;;;;;11.46;55.35;102852.94;5081767;28;61854;-87
2022/01/24 10:29:39;;;;;;;;;62.50;44.75;;;;;11.47;55.34;102854.78;5081432;28;61903;-87
2022/01/24 10:32:05;;;;;;;;;58.67;44.33;;;;;11.55;54.83;102855.38;5082327;28;61823;-87
2022/01/24 10:34:36;;;;;;;;;59.00;42.75;;;;;11.63;54.51;102846.31;5081264;28;62918;-86
2022/01/24 10:37:02;;;;;;;;;56.00;42.00;;;;;11.76;54.56;102853.38;5081735;27;61939;-87
2022/01/24 10:42:32;;;;;;;;;54.00;43.50;;;;;11.97;54.30;102847.06;5082308;28;61888;-87
2022/01/24 10:45:15;;;;;;;;;55.50;42.75;;;;;12.05;54.59;102842.38;5098426;27;63659;-88
2022/01/24 10:47:45;;;;;;;;;57.00;41.75;;;;;12.17;53.92;102840.63;5085764;28;61819;-87
2022/01/24 10:50:23;;;;;;;;;59.75;46.50;;;;;12.29;54.43;102835.28;5101082;27;61865;-87
2022/01/24 10:52:50;;;;;;;;;55.75;42.75;;;;;12.30;53.05;102823.03;5086131;27;61807;-87
2022/01/24 10:55:24;;;;;;;;;52.00;42.25;;;;;12.40;53.63;102825.50;5084377;28;62021;-87
2022/01/24 10:58:06;;;;;;;;;55.50;42.75;;;;;12.53;54.03;102828.16;5084258;28;61763;-88
2022/01/24 11:00:34;;;;;;;;;62.00;41.00;;;;;12.64;53.36;102826.31;5085038;28;62085;-88
2022/01/24 11:03:00;;;;;;;;;58.75;45.00;;;;;12.67;53.32;102818.59;5085328;27;61952;-87
2022/01/24 11:05:35;;;;;;;;;60.33;46.33;;;;;12.74;53.42;102820.84;5082264;28;64960;-88
2022/01/24 11:08:04;;;;;;;;;57.00;44.75;;;;;12.87;53.38;102822.59;5101082;27;61806;-87
2022/01/24 11:10:34;;;;;;;;;57.50;41.00;;;;;12.95;52.91;102826.66;5083862;28;61973;-87
2022/01/24 11:13:02;;;;;;;;;61.00;43.50;;;;;13.01;53.08;102818.25;5085240;28;62097;-88
2022/01/24 11:15:27;;;;;;;;;63.25;43.25;;;;;13.10;52.60;102808.31;5084112;27;63067;-88
2022/01/24 11:17:54;;;;;;;;;59.00;43.67;;;;;13.18;52.02;102808.84;5101858;27;61906;-88
2022/01/24 11:20:21;;;;;;;;;60.75;43.50;;;;;13.22;52.25;102803.88;5085424;27;61791;-88
2022/01/24 11:22:58;;;;;;;;;55.75;42.50;;;;;13.35;52.35;102802.09;5085264;27;62108;-88
2022/01/24 11:25:25;;;;;;;;;52.00;42.25;;;;;13.43;52.26;102799.13;5082681;28;63885;-87
2022/01/24 11:27:51;;;;;;;;;64.50;44.75;;;;;13.48;52.01;102786.22;5085033;27;61747;-88
2022/01/24 11:30:21;;;;;;;;;49.00;41.25;;;;;13.64;51.84;102791.66;5083453;28;61833;-88
2022/01/24 11:32:58;;;;;;;;;54.50;40.50;;;;;13.71;50.99;102793.00;5085056;27;62181;-88
2022/01/24 11:35:31;;;;;;;;;53.50;41.00;;;;;13.58;49.83;102795.63;5082997;28;64829;-88
2022/01/24 11:37:58;;;;;;;;;47.00;37.75;;;;;13.63;50.54;102783.66;5064915;28;62203;-88
2022/01/24 11:40:25;;;;;;;;;52.75;40.25;;;;;13.70;50.35;102776.22;5080416;28;61823;-88
2022/01/24 11:42:52;;;;;;;;;56.50;40.25;;;;;13.88;50.74;102779.13;5064208;28;61886;-88
2022/01/24 11:45:45;;;;;;;;;48.00;40.75;;;;;14.09;49.59;102781.28;5063429;28;63074;-88
2022/01/24 11:48:17;;;;;;;;;40.50;35.75;;;;;14.27;49.58;102782.41;5079882;28;61924;-88
2022/01/24 11:50:58;;;;;;;;;49.50;35.25;;;;;14.43;50.39;102770.13;5079907;28;61808;-88
2022/01/24 11:53:28;;;;;;;;;44.25;35.50;;;;;14.61;49.12;102773.94;5064585;28;61949;-88
2022/01/24 11:55:55;;;;;;;;;42.50;33.00;;;;;14.68;48.27;102776.13;5077729;28;64184;-88
2022/01/24 11:58:30;;;;;;;;;56.50;40.50;;;;;14.71;48.42;102767.44;5063902;28;61822;-88
2022/01/24 12:01:02;;;;;;;;;47.00;37.25;;;;;14.81;48.20;102777.75;5079919;28;62126;-88
2022/01/24 12:03:29;;;;;;;;;47.00;33.00;;;;;14.93;47.85;102780.19;5079934;28;61778;-88
2022/01/24 12:06:09;;;;;;;;;48.50;35.50;;;;;15.10;48.48;102773.25;5078625;28;64836;-83
2022/01/24 12:08:41;;;;;;;;;55.00;42.00;;;;;15.15;47.26;102776.19;5080631;28;61863;-89
2022/01/24 12:11:21;;;;;;;;;51.25;41.50;;;;;15.15;46.17;102773.53;5064969;28;61838;-83
2022/01/24 12:13:51;;;;;;;;;53.00;40.25;;;;;15.29;47.07;102776.13;5096745;27;61932;-85
2022/01/24 12:16:17;;;;;;;;;53.00;40.00;;;;;15.46;47.42;102768.25;5065632;28;61879;-87
2022/01/24 12:18:46;;;;;;;;;48.75;40.25;;;;;15.73;48.01;102768.91;5080739;28;61766;-91
2022/01/24 12:21:16;;;;;;;;;40.25;33.25;;;;;15.90;47.04;102764.53;5098568;27;61971;-89
2022/01/24 12:23:50;;;;;;;;;50.25;39.25;;;;;16.02;46.00;102757.22;5078661;28;62082;-89
2022/01/24 12:26:15;;;;;;;;;43.50;37.00;;;;;16.15;45.51;102769.41;5061917;28;63068;-88
2022/01/24 12:28:44;;;;;;;;;52.50;39.75;;;;;16.28;45.90;102763.94;5096459;27;61782;-88
2022/01/24 12:31:11;;;;;;;;;44.75;37.00;;;;;16.28;44.72;102747.09;5097515;27;61981;-88
2022/01/24 12:33:55;;;;;;;;;56.00;41.25;;;;;16.37;45.01;102760.88;5064534;28;62819;-85
2022/01/24 12:39:24;;;;;;;;;42.50;35.50;;;;;16.47;43.83;102759.59;5083735;27;62040;-87
2022/01/24 12:42:06;;;;;;;;;48.50;38.75;;;;;16.54;44.16;102762.66;5083696;28;62265;-83
2022/01/24 12:47:01;;;;;;;;;42.25;36.50;;;;;16.69;44.10;102748.38;5083008;28;62786;-75
2022/01/24 12:49:30;;;;;;;;;34.50;31.00;;;;;16.74;44.96;102754.81;5082541;28;61797;-77
2022/01/24 12:51:59;;;;;;;;;46.00;35.75;;;;;16.88;44.59;102745.84;5083727;27;61966;-76
2022/01/24 12:54:31;;;;;;;;;39.50;35.75;;;;;17.01;45.26;102741.13;5083437;27;62075;-80
2022/01/24 12:56:59;;;;;;;;;38.25;35.75;;;;;17.12;44.51;102737.28;5097623;27;63566;-83
2022/01/24 12:59:25;;;;;;;;;44.50;36.00;;;;;17.05;42.96;102729.84;5081880;28;61820;-82
2022/01/24 13:01:54;;;;;;;;;42.25;35.00;;;;;17.09;43.87;102745.97;5082231;28;62060;-83
2022/01/24 13:04:31;;;;;;;;;37.25;28.50;;;;;17.27;43.73;102738.03;5082165;28;61873;-82
2022/01/24 13:06:58;;;;;;;;;43.25;33.25;;;;;17.34;44.01;102739.22;5098344;27;63783;-82
2022/01/24 13:09:25;;;;;;;;;44.25;35.75;;;;;17.33;43.71;102745.34;5081883;27;62001;-83